createdAt,value
2023-01-17T00:02:06.371Z,4.88
2023-01-17T00:04:52.052Z,4.20
2023-01-17T00:07:39.212Z,6.60
2023-01-17T00:10:09.222Z,7.20
2023-01-17T00:12:39.158Z,6.22
2023-01-17T00:15:08.733Z,5.28
2023-01-17T00:17:36.546Z,4.40
2023-01-17T00:20:22.045Z,5.45
2023-01-17T00:23:07.140Z,6.15
2023-01-17T00:25:56.538Z,3.97
2023-01-17T00:28:25.386Z,5.05
2023-01-17T00:30:52.655Z,4.93
2023-01-17T00:33:19.974Z,5.35
2023-01-17T00:35:46.754Z,4.53
2023-01-17T00:38:15.314Z,8.35
2023-01-17T00:40:43.909Z,12.73
2023-01-17T00:43:31.028Z,8.45
2023-01-17T00:46:17.665Z,5.95
2023-01-17T00:49:03.444Z,5.72
2023-01-17T00:51:50.466Z,3.30
2023-01-17T00:54:35.943Z,4.40
2023-01-17T00:57:21.624Z,4.38
2023-01-17T01:00:06.870Z,3.80
2023-01-17T01:02:54.477Z,4.50
2023-01-17T01:05:40.177Z,5.53
2023-01-17T01:08:35.152Z,4.03
2023-01-17T01:11:23.643Z,4.53
2023-01-17T01:14:09.081Z,4.93
2023-01-17T01:16:54.506Z,4.68
2023-01-17T01:19:41.128Z,3.60
2023-01-17T01:22:26.583Z,3.90
2023-01-17T01:25:12.099Z,3.42
2023-01-17T01:27:57.234Z,2.67
2023-01-17T01:30:42.686Z,7.10
2023-01-17T01:33:18.883Z,4.45
2023-01-17T01:35:49.374Z,3.00
2023-01-17T01:38:17.903Z,4.50
2023-01-17T01:40:47.989Z,2.50
2023-01-17T01:43:17.990Z,2.60
2023-01-17T01:45:49.931Z,3.38
2023-01-17T01:48:36.475Z,4.05
2023-01-17T01:51:09.204Z,3.60
2023-01-17T01:53:40.050Z,3.95
2023-01-17T01:56:10.524Z,4.38
2023-01-17T01:58:39.605Z,2.55
2023-01-17T02:01:09.368Z,2.65
2023-01-17T02:03:37.985Z,2.58
2023-01-17T02:06:15.421Z,2.45
2023-01-17T02:08:43.553Z,2.95
2023-01-17T02:11:12.172Z,2.40
2023-01-17T02:13:40.830Z,2.05
2023-01-17T02:16:19.118Z,2.65
2023-01-17T02:18:55.870Z,3.80
2023-01-17T02:21:27.219Z,3.42
2023-01-17T02:26:59.105Z,3.25
2023-01-17T02:30:02.730Z,3.40
2023-01-17T02:32:41.670Z,3.45
2023-01-17T02:35:17.171Z,3.15
2023-01-17T02:37:56.509Z,3.95
2023-01-17T02:40:28.815Z,4.15
2023-01-17T02:43:02.651Z,3.72
2023-01-17T02:45:30.542Z,4.00
2023-01-17T02:47:59.733Z,4.55
2023-01-17T02:50:33.713Z,4.45
2023-01-17T02:53:19.799Z,3.42
2023-01-17T02:55:58.652Z,6.78
2023-01-17T02:58:41.594Z,6.75
2023-01-17T03:01:21.941Z,4.53
2023-01-17T03:03:56.317Z,4.57
2023-01-17T03:06:30.326Z,3.80
2023-01-17T03:08:58.170Z,2.78
2023-01-17T03:11:27.185Z,4.22
2023-01-17T03:13:56.599Z,3.72
2023-01-17T03:16:26.469Z,3.58
2023-01-17T03:18:55.762Z,4.03
2023-01-17T03:21:24.737Z,3.58
2023-01-17T03:23:53.186Z,3.42
2023-01-17T03:26:20.956Z,5.03
2023-01-17T03:28:48.786Z,5.85
2023-01-17T03:31:17.032Z,3.75
2023-01-17T03:33:44.801Z,4.60
2023-01-17T03:36:13.951Z,3.90
2023-01-17T03:38:41.769Z,6.80
2023-01-17T03:41:09.678Z,5.80
2023-01-17T03:43:37.489Z,4.13
2023-01-17T03:46:07.425Z,4.93
2023-01-17T03:48:35.432Z,5.30
2023-01-17T03:51:03.176Z,4.93
2023-01-17T03:53:32.352Z,5.10
2023-01-17T03:56:00.779Z,5.50
2023-01-17T03:58:28.537Z,6.15
2023-01-17T04:00:56.357Z,5.35
2023-01-17T04:03:24.266Z,7.57
2023-01-17T04:05:52.034Z,5.85
2023-01-17T04:08:19.793Z,8.07
2023-01-17T04:10:49.189Z,3.65
2023-01-17T04:13:17.633Z,4.85
2023-01-17T04:15:46.901Z,6.50
2023-01-17T04:18:14.753Z,4.50
2023-01-17T04:20:43.381Z,4.57
2023-01-17T04:23:11.381Z,7.65
2023-01-17T04:25:39.626Z,4.60
2023-01-17T04:28:09.045Z,3.20
2023-01-17T04:30:37.150Z,3.80
2023-01-17T04:33:05.291Z,5.43
2023-01-17T04:35:34.415Z,4.03
2023-01-17T04:38:02.198Z,4.28
2023-01-17T04:40:30.525Z,5.60
2023-01-17T04:42:58.617Z,5.00
2023-01-17T04:45:28.088Z,5.30
2023-01-17T04:47:55.900Z,4.75
2023-01-17T04:50:23.615Z,3.17
2023-01-17T04:52:51.385Z,4.70
2023-01-17T04:55:19.162Z,3.75
2023-01-17T04:57:48.390Z,3.50
2023-01-17T05:00:17.320Z,5.88
2023-01-17T05:02:46.466Z,3.70
2023-01-17T05:05:14.374Z,4.25
2023-01-17T05:07:42.174Z,5.88
2023-01-17T05:10:11.451Z,6.32
2023-01-17T05:12:39.230Z,6.03
2023-01-17T05:15:07.919Z,5.07
2023-01-17T05:17:35.700Z,6.43
2023-01-17T05:20:05.631Z,3.28
2023-01-17T05:22:33.433Z,4.80
2023-01-17T05:25:01.201Z,5.65
2023-01-17T05:27:29.607Z,7.22
2023-01-17T05:29:57.374Z,6.22
2023-01-17T05:32:25.263Z,8.88
2023-01-17T05:34:53.019Z,4.78
2023-01-17T05:37:22.185Z,4.97
2023-01-17T05:39:49.962Z,4.95
2023-01-17T05:42:17.729Z,6.32
2023-01-17T05:44:45.524Z,5.03
2023-01-17T05:47:13.303Z,4.75
2023-01-17T05:49:41.098Z,6.63
2023-01-17T05:52:09.845Z,5.53
2023-01-17T05:54:38.998Z,6.55
2023-01-17T05:57:06.757Z,5.88
2023-01-17T05:59:37.312Z,5.70
2023-01-17T06:02:05.315Z,5.55
2023-01-17T06:04:33.170Z,6.40
2023-01-17T06:07:00.990Z,6.15
2023-01-17T06:09:28.754Z,8.20
2023-01-17T06:11:57.838Z,6.43
2023-01-17T06:14:25.575Z,5.25
2023-01-17T06:16:53.432Z,7.38
2023-01-17T06:19:21.212Z,5.45
2023-01-17T06:21:48.968Z,6.22
2023-01-17T06:24:16.723Z,8.57
2023-01-17T06:26:44.748Z,7.60
2023-01-17T06:29:14.220Z,7.95
2023-01-17T06:31:42.094Z,9.45
2023-01-17T06:34:09.892Z,5.43
2023-01-17T06:36:37.650Z,5.63
2023-01-17T06:39:05.607Z,7.13
2023-01-17T06:41:33.469Z,8.75
2023-01-17T06:44:01.243Z,7.50
2023-01-17T06:46:30.383Z,8.38
2023-01-17T06:48:58.178Z,10.18
2023-01-17T06:51:25.969Z,6.70
2023-01-17T06:53:53.722Z,6.13
2023-01-17T06:56:21.698Z,8.13
2023-01-17T06:58:50.188Z,8.02
2023-01-17T07:01:18.947Z,9.77
2023-01-17T07:03:48.172Z,7.95
2023-01-17T07:06:16.060Z,9.85
2023-01-17T07:08:43.914Z,9.00
2023-01-17T07:11:12.061Z,9.80
2023-01-17T07:13:40.560Z,9.00
2023-01-17T07:16:09.346Z,9.40
2023-01-17T07:18:37.159Z,11.30
2023-01-17T07:21:06.475Z,11.48
2023-01-17T07:23:34.272Z,9.13
2023-01-17T07:26:02.673Z,8.25
2023-01-17T07:28:30.445Z,8.90
2023-01-17T07:30:58.441Z,9.40
2023-01-17T07:33:26.324Z,9.80
2023-01-17T07:35:54.138Z,12.20
2023-01-17T07:38:23.258Z,8.07
2023-01-17T07:40:51.103Z,8.05
2023-01-17T07:43:18.901Z,8.88
2023-01-17T07:45:49.536Z,8.63
2023-01-17T07:48:18.793Z,11.02
2023-01-17T07:50:52.015Z,8.85
2023-01-17T07:53:19.800Z,10.50
2023-01-17T07:55:48.999Z,9.45
2023-01-17T07:58:16.841Z,13.60
2023-01-17T08:00:44.966Z,11.20
2023-01-17T08:03:15.049Z,10.73
2023-01-17T08:05:43.286Z,9.05
2023-01-17T08:08:11.349Z,8.20
2023-01-17T08:10:39.212Z,7.90
2023-01-17T08:13:08.337Z,6.82
2023-01-17T08:15:36.148Z,10.32
2023-01-17T08:18:04.025Z,7.68
2023-01-17T08:20:31.788Z,7.57
2023-01-17T08:22:59.585Z,9.88
2023-01-17T08:25:28.002Z,10.40
2023-01-17T08:27:58.959Z,9.80
2023-01-17T08:30:28.848Z,10.55
2023-01-17T08:32:56.797Z,8.68
2023-01-17T08:35:24.836Z,7.70
2023-01-17T08:37:55.652Z,8.45
2023-01-17T08:40:24.240Z,9.18
2023-01-17T08:42:56.226Z,7.07
2023-01-17T08:45:24.541Z,10.82
2023-01-17T08:47:53.786Z,7.70
2023-01-17T08:50:21.591Z,8.13
2023-01-17T08:52:49.659Z,8.55
2023-01-17T08:55:18.077Z,7.05
2023-01-17T08:57:45.908Z,9.38
2023-01-17T09:00:14.413Z,8.32
2023-01-17T09:02:42.215Z,9.32
2023-01-17T09:05:11.898Z,8.52
2023-01-17T09:07:39.668Z,8.70
2023-01-17T09:10:07.987Z,7.95
2023-01-17T09:12:36.857Z,7.05
2023-01-17T09:15:05.212Z,6.40
2023-01-17T09:17:33.146Z,5.50
2023-01-17T09:20:00.898Z,7.80
2023-01-17T09:22:30.009Z,9.48
2023-01-17T09:24:57.881Z,5.97
2023-01-17T09:27:25.742Z,8.95
2023-01-17T09:29:53.571Z,5.85
2023-01-17T09:32:21.428Z,6.45
2023-01-17T09:34:49.217Z,6.68
2023-01-17T09:37:16.958Z,9.15
2023-01-17T09:39:46.098Z,9.30
2023-01-17T09:42:22.720Z,6.97
2023-01-17T09:44:52.512Z,7.28
2023-01-17T09:47:31.681Z,6.43
2023-01-17T09:50:04.793Z,5.93
2023-01-17T09:52:33.744Z,9.02
2023-01-17T09:55:03.841Z,6.60
2023-01-17T09:57:43.569Z,7.82
2023-01-17T10:00:22.898Z,7.20
2023-01-17T10:03:10.474Z,8.27
2023-01-17T10:05:59.593Z,7.70
2023-01-17T10:08:44.390Z,7.40
2023-01-17T10:11:32.853Z,9.48
2023-01-17T10:14:15.553Z,8.75
2023-01-17T10:16:52.935Z,7.80
2023-01-17T10:22:31.657Z,7.85
2023-01-17T10:25:13.046Z,9.23
2023-01-17T10:27:49.018Z,9.18
2023-01-17T10:30:24.807Z,8.25
2023-01-17T10:32:52.739Z,9.93
2023-01-17T10:35:24.820Z,8.90
2023-01-17T10:37:56.957Z,8.35
2023-01-17T10:40:30.415Z,9.35
2023-01-17T10:43:05.634Z,12.15
2023-01-17T10:45:41.098Z,9.32
2023-01-17T10:48:17.026Z,9.68
2023-01-17T10:50:57.005Z,9.27
2023-01-17T10:53:42.257Z,10.40
2023-01-17T10:56:14.640Z,12.02
2023-01-17T10:58:43.874Z,7.80
2023-01-17T11:01:18.690Z,9.10
2023-01-17T11:03:50.656Z,8.45
2023-01-17T11:06:20.996Z,12.70
2023-01-17T11:08:54.338Z,10.75
2023-01-17T11:11:24.969Z,12.80
2023-01-17T11:13:56.375Z,8.20
2023-01-17T11:16:27.707Z,11.05
2023-01-17T11:21:35.184Z,10.95
2023-01-17T11:24:12.102Z,8.60
2023-01-17T11:26:49.333Z,17.17
2023-01-17T11:31:57.716Z,9.02
2023-01-17T11:34:29.412Z,12.05
2023-01-17T11:37:18.246Z,11.10
2023-01-17T11:39:48.135Z,8.82
2023-01-17T11:42:36.485Z,11.00
2023-01-17T11:45:26.447Z,10.90
2023-01-17T11:48:18.532Z,11.98
2023-01-17T11:50:54.678Z,11.80
2023-01-17T11:53:29.024Z,10.82
2023-01-17T11:56:00.797Z,9.02
2023-01-17T11:58:29.779Z,9.60
2023-01-17T12:01:19.442Z,9.38
2023-01-17T12:04:19.933Z,10.27
2023-01-17T12:06:58.958Z,9.15
2023-01-17T12:09:34.342Z,9.95
2023-01-17T12:12:30.002Z,9.73
2023-01-17T12:15:09.006Z,9.50
2023-01-17T12:17:56.693Z,8.57
2023-01-17T12:20:32.841Z,7.82
2023-01-17T12:23:14.137Z,9.98
2023-01-17T12:25:54.554Z,7.93
2023-01-17T12:28:47.865Z,10.73
2023-01-17T12:31:21.688Z,10.23
2023-01-17T12:33:56.133Z,9.80
2023-01-17T12:36:45.674Z,9.30
2023-01-17T12:39:19.635Z,8.60
2023-01-17T12:41:58.754Z,6.72
2023-01-17T12:44:40.104Z,6.63
2023-01-17T12:47:08.329Z,8.35
2023-01-17T12:49:47.432Z,8.27
2023-01-17T12:52:22.650Z,6.80
2023-01-17T12:55:22.366Z,5.38
2023-01-17T12:57:59.961Z,6.53
2023-01-17T13:01:15.394Z,8.13
2023-01-17T13:03:52.548Z,5.32
2023-01-17T13:06:28.949Z,5.47
2023-01-17T13:09:01.531Z,5.72
2023-01-17T13:11:35.381Z,6.00
2023-01-17T13:14:03.376Z,4.70
2023-01-17T13:16:37.280Z,5.07
2023-01-17T13:19:15.843Z,7.35
2023-01-17T13:21:48.979Z,5.20
2023-01-17T13:24:26.725Z,7.57
2023-01-17T13:27:05.674Z,6.35
2023-01-17T13:29:40.223Z,5.88
2023-01-17T13:32:23.616Z,5.60
2023-01-17T13:35:13.661Z,4.95
2023-01-17T13:38:06.165Z,4.78
2023-01-17T13:40:37.395Z,5.45
2023-01-17T13:43:12.964Z,4.35
2023-01-17T13:45:40.977Z,5.05
2023-01-17T13:48:29.981Z,5.50
2023-01-17T13:54:00.475Z,4.90
2023-01-17T13:56:36.633Z,3.95
2023-01-17T13:59:06.383Z,3.50
2023-01-17T14:01:56.643Z,4.85
2023-01-17T14:04:42.396Z,4.30
2023-01-17T14:07:21.031Z,5.35
2023-01-17T14:09:52.063Z,3.53
2023-01-17T14:14:57.643Z,6.20
2023-01-17T14:17:36.971Z,5.38
2023-01-17T14:20:37.206Z,3.90
2023-01-17T14:23:21.903Z,4.78
2023-01-17T14:25:52.631Z,5.22
2023-01-17T14:28:30.318Z,6.38
2023-01-17T14:31:00.775Z,5.15
2023-01-17T14:33:31.216Z,6.10
2023-01-17T14:36:02.010Z,5.43
2023-01-17T14:38:31.964Z,5.25
2023-01-17T14:41:06.793Z,5.65
2023-01-17T14:43:37.321Z,4.63
2023-01-17T14:46:08.125Z,5.72
2023-01-17T14:48:41.145Z,5.55
2023-01-17T14:51:14.509Z,6.13
2023-01-17T14:53:53.608Z,6.78
2023-01-17T14:56:22.866Z,5.63
2023-01-17T14:59:05.443Z,5.45
2023-01-17T15:01:35.641Z,5.72
2023-01-17T15:04:03.620Z,7.60
2023-01-17T15:06:37.418Z,6.90
2023-01-17T15:09:11.156Z,6.32
2023-01-17T15:11:42.188Z,7.75
2023-01-17T15:14:19.046Z,9.73
2023-01-17T15:16:46.874Z,9.38
2023-01-17T15:19:16.051Z,8.45
2023-01-17T15:21:46.682Z,5.07
2023-01-17T15:24:19.087Z,6.18
2023-01-17T15:26:49.377Z,5.57
2023-01-17T15:29:24.178Z,6.72
2023-01-17T15:31:54.703Z,7.57
2023-01-17T15:34:27.924Z,6.88
2023-01-17T15:36:58.150Z,7.03
2023-01-17T15:39:30.289Z,6.45
2023-01-17T15:42:01.593Z,6.72
2023-01-17T15:47:31.095Z,6.65
2023-01-17T15:49:59.984Z,5.93
2023-01-17T15:52:28.586Z,5.45
2023-01-17T15:55:00.067Z,6.07
2023-01-17T15:57:31.438Z,5.90
2023-01-17T16:00:02.695Z,6.13
2023-01-17T16:02:42.797Z,6.57
2023-01-17T16:05:34.612Z,5.93
2023-01-17T16:08:34.207Z,4.93
2023-01-17T16:11:06.014Z,6.47
2023-01-17T16:13:37.757Z,9.38
2023-01-17T16:16:24.216Z,5.47
2023-01-17T16:18:59.903Z,5.72
2023-01-17T16:21:29.299Z,7.38
2023-01-17T16:23:57.531Z,8.70
2023-01-17T16:26:25.478Z,9.32
2023-01-17T16:28:54.599Z,6.97
2023-01-17T16:31:22.438Z,7.28
2023-01-17T16:33:51.571Z,8.60
2023-01-17T16:36:21.251Z,8.30
2023-01-17T16:38:51.155Z,9.80
2023-01-17T16:41:19.379Z,10.07
2023-01-17T16:43:48.195Z,8.77
2023-01-17T16:46:21.689Z,7.68
2023-01-17T16:48:49.505Z,9.40
2023-01-17T16:51:17.323Z,8.63
2023-01-17T16:53:45.077Z,6.78
2023-01-17T16:56:15.244Z,6.88
2023-01-17T16:58:43.450Z,6.50
2023-01-17T17:01:12.458Z,9.57
2023-01-17T17:03:41.985Z,6.90
2023-01-17T17:06:10.969Z,7.05
2023-01-17T17:08:39.656Z,7.65
2023-01-17T17:11:14.021Z,7.97
2023-01-17T17:13:43.389Z,8.50
2023-01-17T17:16:18.576Z,9.80
2023-01-17T17:18:54.931Z,9.40
2023-01-17T17:21:22.956Z,7.75
2023-01-17T17:23:56.549Z,8.77
2023-01-17T17:26:24.908Z,9.93
2023-01-17T17:28:53.359Z,9.23
2023-01-17T17:31:21.669Z,9.93
2023-01-17T17:33:51.068Z,7.93
2023-01-17T17:36:18.839Z,8.00
2023-01-17T17:38:51.650Z,7.47
2023-01-17T17:41:22.802Z,8.05
2023-01-17T17:43:52.140Z,6.78
2023-01-17T17:46:23.030Z,7.70
2023-01-17T17:48:52.258Z,7.88
2023-01-17T17:51:25.834Z,8.02
2023-01-17T17:53:54.638Z,8.65
2023-01-17T17:56:23.653Z,7.18
2023-01-17T17:58:51.753Z,7.80
2023-01-17T18:01:19.914Z,7.35
2023-01-17T18:03:47.764Z,7.18
2023-01-17T18:06:17.373Z,6.50
2023-01-17T18:08:45.368Z,7.20
2023-01-17T18:11:17.735Z,8.40
2023-01-17T18:13:47.995Z,8.02
2023-01-17T18:16:17.517Z,7.97
2023-01-17T18:18:48.836Z,7.35
2023-01-17T18:21:23.515Z,8.20
2023-01-17T18:23:54.020Z,8.05
2023-01-17T18:26:24.294Z,8.68
2023-01-17T18:28:53.941Z,7.65
2023-01-17T18:31:22.071Z,8.73
2023-01-17T18:33:49.938Z,9.18
2023-01-17T18:36:19.557Z,11.65
2023-01-17T18:38:48.739Z,10.02
2023-01-17T18:41:18.477Z,9.15
2023-01-17T18:43:47.308Z,15.90
2023-01-17T18:46:16.680Z,13.02
2023-01-17T18:48:44.949Z,11.95
2023-01-17T18:51:14.108Z,12.13
2023-01-17T18:53:45.527Z,13.20
2023-01-17T18:58:43.855Z,10.98
2023-01-17T19:01:13.814Z,9.50
2023-01-17T19:03:43.543Z,13.00
2023-01-17T19:06:14.574Z,13.45
2023-01-17T19:08:45.074Z,15.95
2023-01-17T19:11:13.752Z,14.32
2023-01-17T19:13:41.924Z,12.73
2023-01-17T19:16:14.085Z,14.55
2023-01-17T19:18:42.426Z,15.95
2023-01-17T19:21:12.390Z,12.25
2023-01-17T19:23:40.360Z,11.95
2023-01-17T19:26:10.406Z,11.45
2023-01-17T19:28:39.549Z,14.20
2023-01-17T19:31:09.396Z,14.00
2023-01-17T19:33:38.871Z,14.90
2023-01-17T19:36:10.462Z,13.23
2023-01-17T19:38:38.786Z,13.77
2023-01-17T19:41:14.054Z,15.25
2023-01-17T19:43:43.505Z,12.07
2023-01-17T19:46:12.168Z,12.32
2023-01-17T19:48:40.750Z,12.68
2023-01-17T19:51:10.373Z,11.23
2023-01-17T19:53:38.928Z,14.45
2023-01-17T19:56:08.140Z,12.23
2023-01-17T19:58:37.809Z,14.07
2023-01-17T20:01:07.856Z,23.40
2023-01-17T20:03:36.301Z,23.40
2023-01-17T20:06:04.671Z,22.67
2023-01-17T20:08:32.495Z,25.08
2023-01-17T20:11:05.178Z,13.10
2023-01-17T20:13:33.080Z,12.43
2023-01-17T20:16:04.891Z,11.27
2023-01-17T20:18:33.227Z,17.23
2023-01-17T20:21:05.308Z,11.73
2023-01-17T20:23:36.543Z,12.13
2023-01-17T20:26:04.711Z,12.18
2023-01-17T20:28:34.375Z,12.43
2023-01-17T20:31:08.895Z,13.13
2023-01-17T20:33:37.141Z,14.00
2023-01-17T20:36:10.499Z,15.45
2023-01-17T20:38:44.640Z,11.50
2023-01-17T20:41:14.256Z,13.68
2023-01-17T20:43:42.311Z,13.52
2023-01-17T20:46:12.040Z,15.35
2023-01-17T20:48:45.458Z,13.70
2023-01-17T20:51:14.029Z,13.52
2023-01-17T20:53:43.317Z,11.73
2023-01-17T20:56:17.197Z,14.68
2023-01-17T20:58:44.999Z,14.75
2023-01-17T21:01:19.460Z,14.23
2023-01-17T21:03:51.031Z,14.65
2023-01-17T21:06:19.667Z,10.77
2023-01-17T21:08:48.676Z,15.98
2023-01-17T21:11:18.680Z,12.68
2023-01-17T21:13:48.588Z,14.75
2023-01-17T21:16:20.360Z,13.80
2023-01-17T21:18:48.753Z,14.63
2023-01-17T21:21:18.652Z,14.43
2023-01-17T21:23:46.809Z,13.75
2023-01-17T21:26:16.430Z,13.15
2023-01-17T21:28:45.889Z,14.65
2023-01-17T21:31:22.870Z,22.42
2023-01-17T21:33:53.125Z,16.98
2023-01-17T21:36:23.081Z,18.77
2023-01-17T21:38:52.054Z,15.63
2023-01-17T21:41:20.743Z,16.95
2023-01-17T21:43:48.559Z,15.98
2023-01-17T21:46:17.739Z,15.07
2023-01-17T21:48:45.585Z,12.50
2023-01-17T21:51:13.441Z,12.80
2023-01-17T21:53:41.272Z,12.52
2023-01-17T21:56:30.646Z,14.10
2023-01-17T22:01:29.604Z,15.63
2023-01-17T22:03:58.857Z,12.05
2023-01-17T22:06:28.536Z,13.50
2023-01-17T22:08:56.628Z,16.45
2023-01-17T22:11:26.063Z,14.07
2023-01-17T22:13:54.285Z,17.92
2023-01-17T22:16:24.417Z,15.25
2023-01-17T22:18:53.699Z,16.77
2023-01-17T22:21:23.346Z,18.85
2023-01-17T22:23:53.086Z,17.98
2023-01-17T22:26:22.735Z,14.60
2023-01-17T22:28:50.613Z,17.00
2023-01-17T22:31:20.809Z,16.48
2023-01-17T22:33:53.333Z,19.08
2023-01-17T22:36:22.841Z,19.55
2023-01-17T22:38:51.038Z,14.00
2023-01-17T22:41:21.304Z,20.27
2023-01-17T22:43:50.369Z,14.70
2023-01-17T22:46:20.696Z,16.95
2023-01-17T22:48:48.865Z,15.27
2023-01-17T22:51:18.004Z,16.00
2023-01-17T22:53:48.953Z,14.70
2023-01-17T22:56:18.620Z,13.57
2023-01-17T22:58:48.691Z,13.73
2023-01-17T23:01:18.094Z,15.00
2023-01-17T23:03:46.907Z,13.82
2023-01-17T23:06:17.198Z,13.63
2023-01-17T23:08:48.488Z,16.75
2023-01-17T23:11:42.681Z,16.27
2023-01-17T23:14:14.241Z,14.45
2023-01-17T23:19:30.890Z,15.93
2023-01-17T23:22:19.873Z,13.80
2023-01-17T23:24:51.823Z,17.40
2023-01-17T23:27:39.378Z,14.48
2023-01-17T23:30:10.701Z,15.65
2023-01-17T23:35:06.947Z,13.77
2023-01-17T23:37:52.205Z,14.50
2023-01-17T23:40:21.469Z,11.90
2023-01-17T23:43:06.775Z,14.98
2023-01-17T23:45:36.748Z,12.43
2023-01-17T23:48:05.676Z,12.50
2023-01-17T23:50:34.031Z,17.20
2023-01-17T23:53:06.858Z,13.02
2023-01-17T23:55:38.625Z,16.17
2023-01-17T23:58:07.286Z,15.57
